Springfield, Missouri
Current Conditions -  °F | °C
As of 2:52 AM on Tuesday 21 Oct 2014 (Local Time) from KSGF Reporting Station
Clear Clear  
Wind Chill: 48°   Ceiling: Unl
Heat Index: 48°   Visibility: 7mi
Dew Point: 45°   Wind: 0mph
Humidity: 89%   Direction: NA
Pressure: 30.09"   Gusts: NA
Location:  37.21°N, 93.29°W
Report Text: KSGF 210752Z 00000KT 7SM CLR 09/07 A3009 RMK AO2 SLP184 T00890072
Loading
Personal Weather Stations






























Interactive Weather Map
Tropical Storm Tracking
New forecast layout! Learn more

10-Day Weather Forecast

Advertisements
Track Severe Weather on mobile